sensor_id;sensor_type;location;lat;lon;timestamp;temperature;humidity
10296;DHT22;5193;51.032;6.356;2022-11-15T00:00:47;8.80;99.90
10296;DHT22;5193;51.032;6.356;2022-11-15T00:03:21;8.80;99.90
10296;DHT22;5193;51.032;6.356;2022-11-15T00:05:47;8.80;99.90
10296;DHT22;5193;51.032;6.356;2022-11-15T00:08:13;9.00;99.90
10296;DHT22;5193;51.032;6.356;2022-11-15T00:10:39;9.00;99.90
10296;DHT22;5193;51.032;6.356;2022-11-15T00:13:12;9.10;99.90
10296;DHT22;5193;51.032;6.356;2022-11-15T00:15:39;9.20;99.90
10296;DHT22;5193;51.032;6.356;2022-11-15T00:18:05;9.20;99.90
10296;DHT22;5193;51.032;6.356;2022-11-15T00:20:33;9.20;99.90
10296;DHT22;5193;51.032;6.356;2022-11-15T00:22:59;9.30;99.90
10296;DHT22;5193;51.032;6.356;2022-11-15T00:25:24;9.30;99.90
10296;DHT22;5193;51.032;6.356;2022-11-15T00:27:50;9.30;99.90
10296;DHT22;5193;51.032;6.356;2022-11-15T00:30:17;9.30;99.90
10296;DHT22;5193;51.032;6.356;2022-11-15T00:32:42;9.30;99.90
10296;DHT22;5193;51.032;6.356;2022-11-15T00:35:08;9.30;99.90
10296;DHT22;5193;51.032;6.356;2022-11-15T00:37:33;9.30;99.90
10296;DHT22;5193;51.032;6.356;2022-11-15T00:39:59;9.30;99.90
10296;DHT22;5193;51.032;6.356;2022-11-15T00:42:25;9.20;99.90
10296;DHT22;5193;51.032;6.356;2022-11-15T00:44:50;9.20;99.90
10296;DHT22;5193;51.032;6.356;2022-11-15T00:47:16;9.20;99.90
10296;DHT22;5193;51.032;6.356;2022-11-15T00:49:41;9.20;99.90
10296;DHT22;5193;51.032;6.356;2022-11-15T00:52:07;9.30;99.90
10296;DHT22;5193;51.032;6.356;2022-11-15T00:54:32;9.30;99.90
10296;DHT22;5193;51.032;6.356;2022-11-15T00:56:58;9.40;99.90
10296;DHT22;5193;51.032;6.356;2022-11-15T00:59:23;9.40;99.90
10296;DHT22;5193;51.032;6.356;2022-11-15T01:01:49;9.50;99.90
10296;DHT22;5193;51.032;6.356;2022-11-15T01:04:14;9.50;99.90
10296;DHT22;5193;51.032;6.356;2022-11-15T01:06:40;9.60;99.90
10296;DHT22;5193;51.032;6.356;2022-11-15T01:09:06;9.60;99.90
10296;DHT22;5193;51.032;6.356;2022-11-15T01:11:31;9.70;99.90
10296;DHT22;5193;51.032;6.356;2022-11-15T01:13:57;9.80;99.90
10296;DHT22;5193;51.032;6.356;2022-11-15T01:16:22;9.70;99.90
10296;DHT22;5193;51.032;6.356;2022-11-15T01:18:48;9.80;99.90
10296;DHT22;5193;51.032;6.356;2022-11-15T01:21:16;9.70;99.90
10296;DHT22;5193;51.032;6.356;2022-11-15T01:23:42;9.60;99.90
10296;DHT22;5193;51.032;6.356;2022-11-15T01:26:12;9.60;99.90
10296;DHT22;5193;51.032;6.356;2022-11-15T01:28:39;9.60;99.90
10296;DHT22;5193;51.032;6.356;2022-11-15T01:31:11;9.60;99.90
10296;DHT22;5193;51.032;6.356;2022-11-15T01:33:37;9.60;99.90
10296;DHT22;5193;51.032;6.356;2022-11-15T01:36:04;9.70;99.90
10296;DHT22;5193;51.032;6.356;2022-11-15T01:38:30;9.80;99.90
10296;DHT22;5193;51.032;6.356;2022-11-15T01:40:56;9.80;99.90
10296;DHT22;5193;51.032;6.356;2022-11-15T01:43:24;9.90;99.90
10296;DHT22;5193;51.032;6.356;2022-11-15T01:46:02;9.90;99.90
10296;DHT22;5193;51.032;6.356;2022-11-15T01:48:33;9.90;99.90
10296;DHT22;5193;51.032;6.356;2022-11-15T01:51:01;9.90;99.90
10296;DHT22;5193;51.032;6.356;2022-11-15T01:53:29;9.90;99.90
10296;DHT22;5193;51.032;6.356;2022-11-15T01:55:55;9.80;99.90
10296;DHT22;5193;51.032;6.356;2022-11-15T01:58:21;9.70;99.90
10296;DHT22;5193;51.032;6.356;2022-11-15T02:00:47;9.70;99.90
10296;DHT22;5193;51.032;6.356;2022-11-15T02:03:15;9.60;99.90
10296;DHT22;5193;51.032;6.356;2022-11-15T02:05:41;9.60;99.90
10296;DHT22;5193;51.032;6.356;2022-11-15T02:08:07;9.60;99.90
10296;DHT22;5193;51.032;6.356;2022-11-15T02:10:33;9.60;99.90
10296;DHT22;5193;51.032;6.356;2022-11-15T02:12:59;9.50;99.90
10296;DHT22;5193;51.032;6.356;2022-11-15T02:15:30;9.60;99.90
10296;DHT22;5193;51.032;6.356;2022-11-15T02:18:32;9.70;99.90
10296;DHT22;5193;51.032;6.356;2022-11-15T02:21:26;9.70;99.90
10296;DHT22;5193;51.032;6.356;2022-11-15T02:34:54;9.70;99.90
10296;DHT22;5193;51.032;6.356;2022-11-15T02:43:12;9.70;99.90
10296;DHT22;5193;51.032;6.356;2022-11-15T02:47:24;9.70;99.90
10296;DHT22;5193;51.032;6.356;2022-11-15T02:49:38;9.80;99.90
10296;DHT22;5193;51.032;6.356;2022-11-15T02:52:05;9.80;99.90
10296;DHT22;5193;51.032;6.356;2022-11-15T02:54:33;9.90;99.90
10296;DHT22;5193;51.032;6.356;2022-11-15T02:57:05;10.00;99.90
10296;DHT22;5193;51.032;6.356;2022-11-15T03:04:58;10.10;99.90
10296;DHT22;5193;51.032;6.356;2022-11-15T03:07:53;10.10;99.90
10296;DHT22;5193;51.032;6.356;2022-11-15T03:13:25;10.00;99.90
10296;DHT22;5193;51.032;6.356;2022-11-15T03:16:02;10.10;99.90
10296;DHT22;5193;51.032;6.356;2022-11-15T03:19:04;10.10;99.90
10296;DHT22;5193;51.032;6.356;2022-11-15T03:21:32;10.10;99.90
10296;DHT22;5193;51.032;6.356;2022-11-15T03:24:02;10.20;99.90
10296;DHT22;5193;51.032;6.356;2022-11-15T03:26:29;10.30;99.90
10296;DHT22;5193;51.032;6.356;2022-11-15T03:29:05;10.30;99.90
10296;DHT22;5193;51.032;6.356;2022-11-15T03:31:36;10.40;99.90
10296;DHT22;5193;51.032;6.356;2022-11-15T03:36:47;10.40;99.90
10296;DHT22;5193;51.032;6.356;2022-11-15T03:39:13;10.40;99.90
10296;DHT22;5193;51.032;6.356;2022-11-15T03:42:22;10.50;99.90
10296;DHT22;5193;51.032;6.356;2022-11-15T03:47:34;10.40;99.90
10296;DHT22;5193;51.032;6.356;2022-11-15T03:50:15;10.40;99.90
10296;DHT22;5193;51.032;6.356;2022-11-15T03:52:43;10.30;99.90
10296;DHT22;5193;51.032;6.356;2022-11-15T03:55:14;10.30;99.90
10296;DHT22;5193;51.032;6.356;2022-11-15T03:57:40;10.40;99.90
10296;DHT22;5193;51.032;6.356;2022-11-15T04:00:07;10.40;99.90
10296;DHT22;5193;51.032;6.356;2022-11-15T04:02:33;10.40;99.90
10296;DHT22;5193;51.032;6.356;2022-11-15T04:04:58;10.50;99.90
10296;DHT22;5193;51.032;6.356;2022-11-15T04:07:24;10.40;99.90
10296;DHT22;5193;51.032;6.356;2022-11-15T04:09:49;10.50;99.90
10296;DHT22;5193;51.032;6.356;2022-11-15T04:12:35;10.50;99.90
10296;DHT22;5193;51.032;6.356;2022-11-15T04:15:04;10.50;99.90
10296;DHT22;5193;51.032;6.356;2022-11-15T04:17:44;10.50;99.90
10296;DHT22;5193;51.032;6.356;2022-11-15T04:20:18;10.50;99.90
10296;DHT22;5193;51.032;6.356;2022-11-15T04:23:06;10.60;99.90
10296;DHT22;5193;51.032;6.356;2022-11-15T04:25:52;10.60;99.90
10296;DHT22;5193;51.032;6.356;2022-11-15T04:28:18;10.60;99.90
10296;DHT22;5193;51.032;6.356;2022-11-15T04:30:44;10.70;99.90
10296;DHT22;5193;51.032;6.356;2022-11-15T04:33:09;10.60;99.90
10296;DHT22;5193;51.032;6.356;2022-11-15T04:35:35;10.70;99.90
10296;DHT22;5193;51.032;6.356;2022-11-15T04:38:03;10.70;99.90
10296;DHT22;5193;51.032;6.356;2022-11-15T04:40:29;10.60;99.90
10296;DHT22;5193;51.032;6.356;2022-11-15T04:42:54;10.70;99.90
10296;DHT22;5193;51.032;6.356;2022-11-15T04:45:20;10.70;99.90
10296;DHT22;5193;51.032;6.356;2022-11-15T04:47:46;10.60;99.90
10296;DHT22;5193;51.032;6.356;2022-11-15T04:50:13;10.60;99.90
10296;DHT22;5193;51.032;6.356;2022-11-15T04:52:58;10.60;99.90
10296;DHT22;5193;51.032;6.356;2022-11-15T04:55:24;10.60;99.90
10296;DHT22;5193;51.032;6.356;2022-11-15T04:57:58;10.50;99.90
10296;DHT22;5193;51.032;6.356;2022-11-15T05:00:24;10.50;99.90
10296;DHT22;5193;51.032;6.356;2022-11-15T05:02:50;10.50;99.90
10296;DHT22;5193;51.032;6.356;2022-11-15T05:05:34;10.50;99.90
10296;DHT22;5193;51.032;6.356;2022-11-15T05:08:00;10.50;99.90
10296;DHT22;5193;51.032;6.356;2022-11-15T05:10:25;10.50;99.90
10296;DHT22;5193;51.032;6.356;2022-11-15T05:12:51;10.60;99.90
10296;DHT22;5193;51.032;6.356;2022-11-15T05:15:17;10.50;99.90
10296;DHT22;5193;51.032;6.356;2022-11-15T05:17:42;10.50;99.90
10296;DHT22;5193;51.032;6.356;2022-11-15T05:20:08;10.50;99.90
10296;DHT22;5193;51.032;6.356;2022-11-15T05:22:34;10.60;99.90
10296;DHT22;5193;51.032;6.356;2022-11-15T05:24:59;10.60;99.90
10296;DHT22;5193;51.032;6.356;2022-11-15T05:27:25;10.60;99.90
10296;DHT22;5193;51.032;6.356;2022-11-15T05:29:50;10.60;99.90
10296;DHT22;5193;51.032;6.356;2022-11-15T05:32:16;10.60;99.90
10296;DHT22;5193;51.032;6.356;2022-11-15T05:34:43;10.60;99.90
10296;DHT22;5193;51.032;6.356;2022-11-15T05:37:09;10.50;99.90
10296;DHT22;5193;51.032;6.356;2022-11-15T05:39:34;10.60;99.90
10296;DHT22;5193;51.032;6.356;2022-11-15T05:42:05;10.50;99.90
10296;DHT22;5193;51.032;6.356;2022-11-15T05:44:32;10.50;99.90
10296;DHT22;5193;51.032;6.356;2022-11-15T05:46:58;10.50;99.90
10296;DHT22;5193;51.032;6.356;2022-11-15T05:49:28;10.50;99.90
10296;DHT22;5193;51.032;6.356;2022-11-15T05:51:55;10.40;99.90
10296;DHT22;5193;51.032;6.356;2022-11-15T05:54:22;10.40;99.90
10296;DHT22;5193;51.032;6.356;2022-11-15T05:56:49;10.30;99.90
10296;DHT22;5193;51.032;6.356;2022-11-15T05:59:14;10.30;99.90
10296;DHT22;5193;51.032;6.356;2022-11-15T06:01:41;10.30;99.90
10296;DHT22;5193;51.032;6.356;2022-11-15T06:04:07;10.30;99.90
10296;DHT22;5193;51.032;6.356;2022-11-15T06:06:32;10.30;99.90
10296;DHT22;5193;51.032;6.356;2022-11-15T06:08:58;10.30;99.90
10296;DHT22;5193;51.032;6.356;2022-11-15T06:11:23;10.20;99.90
10296;DHT22;5193;51.032;6.356;2022-11-15T06:13:49;10.30;99.90
10296;DHT22;5193;51.032;6.356;2022-11-15T06:16:14;10.30;99.90
10296;DHT22;5193;51.032;6.356;2022-11-15T06:18:40;10.40;99.90
10296;DHT22;5193;51.032;6.356;2022-11-15T06:21:06;10.40;99.90
10296;DHT22;5193;51.032;6.356;2022-11-15T06:23:33;10.40;99.90
10296;DHT22;5193;51.032;6.356;2022-11-15T06:25:59;10.50;99.90
10296;DHT22;5193;51.032;6.356;2022-11-15T06:28:27;10.50;99.90
10296;DHT22;5193;51.032;6.356;2022-11-15T06:30:53;10.60;99.90
10296;DHT22;5193;51.032;6.356;2022-11-15T06:33:19;10.60;99.90
10296;DHT22;5193;51.032;6.356;2022-11-15T06:35:44;10.70;99.90
10296;DHT22;5193;51.032;6.356;2022-11-15T06:38:11;10.70;99.90
10296;DHT22;5193;51.032;6.356;2022-11-15T06:40:38;10.70;99.90
10296;DHT22;5193;51.032;6.356;2022-11-15T06:43:05;10.80;99.90
10296;DHT22;5193;51.032;6.356;2022-11-15T06:45:31;10.80;99.90
10296;DHT22;5193;51.032;6.356;2022-11-15T06:47:57;10.80;99.90
10296;DHT22;5193;51.032;6.356;2022-11-15T06:50:22;10.90;99.90
10296;DHT22;5193;51.032;6.356;2022-11-15T06:52:48;10.90;99.90
10296;DHT22;5193;51.032;6.356;2022-11-15T06:55:13;10.80;99.90
10296;DHT22;5193;51.032;6.356;2022-11-15T06:57:49;10.80;99.90
10296;DHT22;5193;51.032;6.356;2022-11-15T07:00:17;10.70;99.90
10296;DHT22;5193;51.032;6.356;2022-11-15T07:02:43;10.70;99.90
10296;DHT22;5193;51.032;6.356;2022-11-15T07:05:08;10.70;99.90
10296;DHT22;5193;51.032;6.356;2022-11-15T07:07:34;10.70;99.90
10296;DHT22;5193;51.032;6.356;2022-11-15T07:09:59;10.70;99.90
10296;DHT22;5193;51.032;6.356;2022-11-15T07:12:25;10.70;99.90
10296;DHT22;5193;51.032;6.356;2022-11-15T07:14:50;10.70;99.90
10296;DHT22;5193;51.032;6.356;2022-11-15T07:17:16;10.70;99.90
10296;DHT22;5193;51.032;6.356;2022-11-15T07:19:41;10.70;99.90
10296;DHT22;5193;51.032;6.356;2022-11-15T07:22:07;10.70;99.90
10296;DHT22;5193;51.032;6.356;2022-11-15T07:24:33;10.60;99.90
10296;DHT22;5193;51.032;6.356;2022-11-15T07:26:58;10.60;99.90
10296;DHT22;5193;51.032;6.356;2022-11-15T07:29:24;10.60;99.90
10296;DHT22;5193;51.032;6.356;2022-11-15T07:31:49;10.60;99.90
10296;DHT22;5193;51.032;6.356;2022-11-15T07:34:16;10.60;99.90
10296;DHT22;5193;51.032;6.356;2022-11-15T07:36:41;10.60;99.90
10296;DHT22;5193;51.032;6.356;2022-11-15T07:39:07;10.60;99.90
10296;DHT22;5193;51.032;6.356;2022-11-15T07:41:32;10.60;99.90
10296;DHT22;5193;51.032;6.356;2022-11-15T07:43:58;10.60;99.90
10296;DHT22;5193;51.032;6.356;2022-11-15T07:46:24;10.60;99.90
10296;DHT22;5193;51.032;6.356;2022-11-15T07:48:49;10.50;99.90
10296;DHT22;5193;51.032;6.356;2022-11-15T07:51:16;10.60;99.90
10296;DHT22;5193;51.032;6.356;2022-11-15T07:53:43;10.60;99.90
10296;DHT22;5193;51.032;6.356;2022-11-15T07:56:09;10.50;99.90
10296;DHT22;5193;51.032;6.356;2022-11-15T07:58:35;10.60;99.90
10296;DHT22;5193;51.032;6.356;2022-11-15T08:01:05;10.50;99.90
10296;DHT22;5193;51.032;6.356;2022-11-15T08:03:32;10.50;99.90
10296;DHT22;5193;51.032;6.356;2022-11-15T08:05:57;10.60;99.90
10296;DHT22;5193;51.032;6.356;2022-11-15T08:08:23;10.60;99.90
10296;DHT22;5193;51.032;6.356;2022-11-15T08:10:48;10.60;99.90
10296;DHT22;5193;51.032;6.356;2022-11-15T08:13:14;10.70;99.90
10296;DHT22;5193;51.032;6.356;2022-11-15T08:15:40;10.70;99.90
10296;DHT22;5193;51.032;6.356;2022-11-15T08:18:09;10.70;99.90
10296;DHT22;5193;51.032;6.356;2022-11-15T08:20:35;10.80;99.90
10296;DHT22;5193;51.032;6.356;2022-11-15T08:23:03;10.70;99.90
10296;DHT22;5193;51.032;6.356;2022-11-15T08:25:31;10.80;99.90
10296;DHT22;5193;51.032;6.356;2022-11-15T08:27:59;10.80;99.90
10296;DHT22;5193;51.032;6.356;2022-11-15T08:30:26;10.80;99.90
10296;DHT22;5193;51.032;6.356;2022-11-15T08:32:53;10.80;99.90
10296;DHT22;5193;51.032;6.356;2022-11-15T08:35:20;10.80;99.90
10296;DHT22;5193;51.032;6.356;2022-11-15T08:37:46;10.80;99.90
10296;DHT22;5193;51.032;6.356;2022-11-15T08:40:12;10.90;99.90
10296;DHT22;5193;51.032;6.356;2022-11-15T08:42:39;10.80;99.90
10296;DHT22;5193;51.032;6.356;2022-11-15T08:45:05;10.90;99.90
10296;DHT22;5193;51.032;6.356;2022-11-15T08:47:31;10.90;99.90
10296;DHT22;5193;51.032;6.356;2022-11-15T08:49:57;11.00;99.90
10296;DHT22;5193;51.032;6.356;2022-11-15T08:52:23;11.00;99.90
10296;DHT22;5193;51.032;6.356;2022-11-15T08:54:48;11.10;99.90
10296;DHT22;5193;51.032;6.356;2022-11-15T08:57:14;11.20;99.90
10296;DHT22;5193;51.032;6.356;2022-11-15T08:59:39;11.20;99.90
10296;DHT22;5193;51.032;6.356;2022-11-15T09:02:05;11.20;99.90
10296;DHT22;5193;51.032;6.356;2022-11-15T09:04:32;11.30;99.90
10296;DHT22;5193;51.032;6.356;2022-11-15T09:06:57;11.30;99.90
10296;DHT22;5193;51.032;6.356;2022-11-15T09:09:23;11.40;99.90
10296;DHT22;5193;51.032;6.356;2022-11-15T09:11:48;11.40;99.90
10296;DHT22;5193;51.032;6.356;2022-11-15T09:14:15;11.40;99.90
10296;DHT22;5193;51.032;6.356;2022-11-15T09:16:41;11.50;99.90
10296;DHT22;5193;51.032;6.356;2022-11-15T09:19:07;11.60;99.90
10296;DHT22;5193;51.032;6.356;2022-11-15T09:21:32;11.60;99.90
10296;DHT22;5193;51.032;6.356;2022-11-15T09:23:58;11.70;99.90
10296;DHT22;5193;51.032;6.356;2022-11-15T09:26:24;11.70;99.90
10296;DHT22;5193;51.032;6.356;2022-11-15T09:28:50;11.70;99.90
10296;DHT22;5193;51.032;6.356;2022-11-15T09:31:16;11.70;99.90
10296;DHT22;5193;51.032;6.356;2022-11-15T09:33:45;11.80;99.90
10296;DHT22;5193;51.032;6.356;2022-11-15T09:36:11;11.80;99.90
10296;DHT22;5193;51.032;6.356;2022-11-15T09:38:37;11.80;99.90
10296;DHT22;5193;51.032;6.356;2022-11-15T09:44:23;12.00;99.90
10296;DHT22;5193;51.032;6.356;2022-11-15T09:49:29;12.10;99.90
10296;DHT22;5193;51.032;6.356;2022-11-15T09:51:55;12.20;99.90
10296;DHT22;5193;51.032;6.356;2022-11-15T09:54:45;12.20;99.90
10296;DHT22;5193;51.032;6.356;2022-11-15T09:57:37;12.40;99.90
10296;DHT22;5193;51.032;6.356;2022-11-15T10:00:18;12.40;99.90
10296;DHT22;5193;51.032;6.356;2022-11-15T10:03:33;12.40;99.90
10296;DHT22;5193;51.032;6.356;2022-11-15T10:05:51;12.50;99.90
10296;DHT22;5193;51.032;6.356;2022-11-15T10:08:30;12.50;99.90
10296;DHT22;5193;51.032;6.356;2022-11-15T10:11:18;12.50;99.90
10296;DHT22;5193;51.032;6.356;2022-11-15T10:13:46;12.60;99.90
10296;DHT22;5193;51.032;6.356;2022-11-15T10:19:01;12.70;99.90
10296;DHT22;5193;51.032;6.356;2022-11-15T10:24:01;12.80;99.90
10296;DHT22;5193;51.032;6.356;2022-11-15T10:26:27;12.90;99.90
10296;DHT22;5193;51.032;6.356;2022-11-15T10:28:53;12.90;99.90
10296;DHT22;5193;51.032;6.356;2022-11-15T10:31:27;12.90;99.90
10296;DHT22;5193;51.032;6.356;2022-11-15T10:34:13;13.00;99.90
10296;DHT22;5193;51.032;6.356;2022-11-15T10:36:44;13.10;99.90
10296;DHT22;5193;51.032;6.356;2022-11-15T10:39:13;13.10;99.90
10296;DHT22;5193;51.032;6.356;2022-11-15T10:41:41;13.10;99.90
10296;DHT22;5193;51.032;6.356;2022-11-15T10:46:33;13.30;99.90
10296;DHT22;5193;51.032;6.356;2022-11-15T10:49:20;13.30;99.90
10296;DHT22;5193;51.032;6.356;2022-11-15T10:56:57;13.50;99.90
10296;DHT22;5193;51.032;6.356;2022-11-15T10:59:29;13.60;99.90
10296;DHT22;5193;51.032;6.356;2022-11-15T11:01:56;13.60;99.90
10296;DHT22;5193;51.032;6.356;2022-11-15T11:04:22;13.70;99.90
10296;DHT22;5193;51.032;6.356;2022-11-15T11:06:48;13.90;99.90
10296;DHT22;5193;51.032;6.356;2022-11-15T11:11:50;14.00;99.90
10296;DHT22;5193;51.032;6.356;2022-11-15T11:14:24;14.00;99.90
10296;DHT22;5193;51.032;6.356;2022-11-15T11:25:58;14.20;99.90
10296;DHT22;5193;51.032;6.356;2022-11-15T11:31:35;14.40;99.90
10296;DHT22;5193;51.032;6.356;2022-11-15T11:37:07;14.70;99.90
10296;DHT22;5193;51.032;6.356;2022-11-15T11:40:11;14.80;99.90
10296;DHT22;5193;51.032;6.356;2022-11-15T11:50:53;14.90;99.90
10296;DHT22;5193;51.032;6.356;2022-11-15T11:53:29;14.90;99.90
10296;DHT22;5193;51.032;6.356;2022-11-15T11:56:01;15.00;99.90
10296;DHT22;5193;51.032;6.356;2022-11-15T11:58:35;15.10;99.90
10296;DHT22;5193;51.032;6.356;2022-11-15T12:01:44;15.10;99.90
10296;DHT22;5193;51.032;6.356;2022-11-15T12:06:54;15.20;99.90
10296;DHT22;5193;51.032;6.356;2022-11-15T12:15:00;15.10;99.90
10296;DHT22;5193;51.032;6.356;2022-11-15T12:17:29;15.10;99.90
10296;DHT22;5193;51.032;6.356;2022-11-15T12:20:02;15.10;99.90
10296;DHT22;5193;51.032;6.356;2022-11-15T12:28:08;15.20;99.90
10296;DHT22;5193;51.032;6.356;2022-11-15T12:31:05;15.10;99.90
10296;DHT22;5193;51.032;6.356;2022-11-15T12:33:40;15.00;99.90
10296;DHT22;5193;51.032;6.356;2022-11-15T12:36:12;15.10;99.90
10296;DHT22;5193;51.032;6.356;2022-11-15T12:38:59;15.10;99.90
10296;DHT22;5193;51.032;6.356;2022-11-15T12:41:33;15.00;99.90
10296;DHT22;5193;51.032;6.356;2022-11-15T12:44:00;15.00;99.90
10296;DHT22;5193;51.032;6.356;2022-11-15T12:49:02;14.90;99.90
10296;DHT22;5193;51.032;6.356;2022-11-15T13:00:05;14.90;99.90
10296;DHT22;5193;51.032;6.356;2022-11-15T13:02:37;14.90;99.90
10296;DHT22;5193;51.032;6.356;2022-11-15T13:07:57;14.80;99.90
10296;DHT22;5193;51.032;6.356;2022-11-15T13:12:57;14.80;99.90
10296;DHT22;5193;51.032;6.356;2022-11-15T13:17:56;14.80;99.90
10296;DHT22;5193;51.032;6.356;2022-11-15T13:20:23;14.70;99.90
10296;DHT22;5193;51.032;6.356;2022-11-15T13:22:52;14.70;99.90
10296;DHT22;5193;51.032;6.356;2022-11-15T13:25:44;14.70;99.90
10296;DHT22;5193;51.032;6.356;2022-11-15T13:30:51;14.70;99.90
10296;DHT22;5193;51.032;6.356;2022-11-15T13:33:35;14.70;99.90
10296;DHT22;5193;51.032;6.356;2022-11-15T13:38:42;14.70;99.90
10296;DHT22;5193;51.032;6.356;2022-11-15T13:41:18;14.70;99.90
10296;DHT22;5193;51.032;6.356;2022-11-15T13:43:46;14.60;99.90
10296;DHT22;5193;51.032;6.356;2022-11-15T13:48:37;14.60;99.90
10296;DHT22;5193;51.032;6.356;2022-11-15T13:51:05;14.60;99.90
10296;DHT22;5193;51.032;6.356;2022-11-15T13:53:33;14.60;99.90
10296;DHT22;5193;51.032;6.356;2022-11-15T13:56:00;14.60;99.90
10296;DHT22;5193;51.032;6.356;2022-11-15T13:58:26;14.60;99.90
10296;DHT22;5193;51.032;6.356;2022-11-15T14:01:03;14.60;99.90
10296;DHT22;5193;51.032;6.356;2022-11-15T14:03:33;14.60;99.90
10296;DHT22;5193;51.032;6.356;2022-11-15T14:06:12;14.60;99.90
10296;DHT22;5193;51.032;6.356;2022-11-15T14:08:57;14.50;99.90
10296;DHT22;5193;51.032;6.356;2022-11-15T14:11:23;14.50;99.90
10296;DHT22;5193;51.032;6.356;2022-11-15T14:16:46;14.50;99.90
10296;DHT22;5193;51.032;6.356;2022-11-15T14:19:33;14.50;99.90
10296;DHT22;5193;51.032;6.356;2022-11-15T14:22:14;14.40;99.90
10296;DHT22;5193;51.032;6.356;2022-11-15T14:24:41;14.40;99.90
10296;DHT22;5193;51.032;6.356;2022-11-15T14:27:18;14.40;99.90
10296;DHT22;5193;51.032;6.356;2022-11-15T14:29:44;14.40;99.90
10296;DHT22;5193;51.032;6.356;2022-11-15T14:32:18;14.40;99.90
10296;DHT22;5193;51.032;6.356;2022-11-15T14:34:45;14.40;99.90
10296;DHT22;5193;51.032;6.356;2022-11-15T14:37:30;14.30;99.90
10296;DHT22;5193;51.032;6.356;2022-11-15T14:40:01;14.30;99.90
10296;DHT22;5193;51.032;6.356;2022-11-15T14:42:27;14.30;99.90
10296;DHT22;5193;51.032;6.356;2022-11-15T14:44:53;14.30;99.90
10296;DHT22;5193;51.032;6.356;2022-11-15T14:47:19;14.30;99.90
10296;DHT22;5193;51.032;6.356;2022-11-15T14:49:44;14.30;99.90
10296;DHT22;5193;51.032;6.356;2022-11-15T14:54:48;14.20;99.90
10296;DHT22;5193;51.032;6.356;2022-11-15T14:57:14;14.20;99.90
10296;DHT22;5193;51.032;6.356;2022-11-15T14:59:39;14.20;99.90
10296;DHT22;5193;51.032;6.356;2022-11-15T15:02:18;14.10;99.90
10296;DHT22;5193;51.032;6.356;2022-11-15T15:04:44;14.10;99.90
10296;DHT22;5193;51.032;6.356;2022-11-15T15:07:10;14.10;99.90
10296;DHT22;5193;51.032;6.356;2022-11-15T15:09:35;14.10;99.90
10296;DHT22;5193;51.032;6.356;2022-11-15T15:12:01;14.00;99.90
10296;DHT22;5193;51.032;6.356;2022-11-15T15:14:26;14.00;99.90
10296;DHT22;5193;51.032;6.356;2022-11-15T15:16:52;14.00;99.90
10296;DHT22;5193;51.032;6.356;2022-11-15T15:19:18;13.90;99.90
10296;DHT22;5193;51.032;6.356;2022-11-15T15:21:43;13.90;99.90
10296;DHT22;5193;51.032;6.356;2022-11-15T15:24:13;13.90;99.90
10296;DHT22;5193;51.032;6.356;2022-11-15T15:26:40;13.80;99.90
10296;DHT22;5193;51.032;6.356;2022-11-15T15:29:05;13.80;99.90
10296;DHT22;5193;51.032;6.356;2022-11-15T15:31:34;13.80;99.90
10296;DHT22;5193;51.032;6.356;2022-11-15T15:33:59;13.70;99.90
10296;DHT22;5193;51.032;6.356;2022-11-15T15:36:25;13.80;99.90
10296;DHT22;5193;51.032;6.356;2022-11-15T15:38:50;13.70;99.90
10296;DHT22;5193;51.032;6.356;2022-11-15T15:41:16;13.70;99.90
10296;DHT22;5193;51.032;6.356;2022-11-15T15:43:42;13.70;99.90
10296;DHT22;5193;51.032;6.356;2022-11-15T15:46:18;13.70;99.90
10296;DHT22;5193;51.032;6.356;2022-11-15T15:48:45;13.60;99.90
10296;DHT22;5193;51.032;6.356;2022-11-15T15:51:11;13.60;99.90
10296;DHT22;5193;51.032;6.356;2022-11-15T15:53:37;13.60;99.90
10296;DHT22;5193;51.032;6.356;2022-11-15T15:56:03;13.60;99.90
10296;DHT22;5193;51.032;6.356;2022-11-15T15:58:29;13.60;99.90
10296;DHT22;5193;51.032;6.356;2022-11-15T16:00:57;13.60;99.90
10296;DHT22;5193;51.032;6.356;2022-11-15T16:03:22;13.60;99.90
10296;DHT22;5193;51.032;6.356;2022-11-15T16:05:50;13.60;99.90
10296;DHT22;5193;51.032;6.356;2022-11-15T16:08:21;13.50;99.90
10296;DHT22;5193;51.032;6.356;2022-11-15T16:10:48;13.50;99.90
10296;DHT22;5193;51.032;6.356;2022-11-15T16:13:14;13.50;99.90
10296;DHT22;5193;51.032;6.356;2022-11-15T16:15:39;13.40;99.90
10296;DHT22;5193;51.032;6.356;2022-11-15T16:18:06;13.40;99.90
10296;DHT22;5193;51.032;6.356;2022-11-15T16:23:04;13.30;99.90
10296;DHT22;5193;51.032;6.356;2022-11-15T16:25:33;13.30;99.90
10296;DHT22;5193;51.032;6.356;2022-11-15T16:28:00;13.30;99.90
10296;DHT22;5193;51.032;6.356;2022-11-15T16:30:25;13.30;99.90
10296;DHT22;5193;51.032;6.356;2022-11-15T16:32:51;13.20;99.90
10296;DHT22;5193;51.032;6.356;2022-11-15T16:35:17;13.20;99.90
10296;DHT22;5193;51.032;6.356;2022-11-15T16:37:43;13.20;99.90
10296;DHT22;5193;51.032;6.356;2022-11-15T16:40:16;13.20;99.90
10296;DHT22;5193;51.032;6.356;2022-11-15T16:42:43;13.20;99.90
10296;DHT22;5193;51.032;6.356;2022-11-15T16:45:11;13.20;99.90
10296;DHT22;5193;51.032;6.356;2022-11-15T16:47:37;13.20;99.90
10296;DHT22;5193;51.032;6.356;2022-11-15T16:50:02;13.20;99.90
10296;DHT22;5193;51.032;6.356;2022-11-15T16:52:28;13.10;99.90
10296;DHT22;5193;51.032;6.356;2022-11-15T16:54:53;13.00;99.90
10296;DHT22;5193;51.032;6.356;2022-11-15T16:57:19;13.00;99.90
10296;DHT22;5193;51.032;6.356;2022-11-15T16:59:45;13.00;99.90
10296;DHT22;5193;51.032;6.356;2022-11-15T17:02:11;12.90;99.90
10296;DHT22;5193;51.032;6.356;2022-11-15T17:04:37;12.80;99.90
10296;DHT22;5193;51.032;6.356;2022-11-15T17:07:03;12.80;99.90
10296;DHT22;5193;51.032;6.356;2022-11-15T17:09:28;12.70;99.90
10296;DHT22;5193;51.032;6.356;2022-11-15T17:11:54;12.70;99.90
10296;DHT22;5193;51.032;6.356;2022-11-15T17:14:19;12.60;99.90
10296;DHT22;5193;51.032;6.356;2022-11-15T17:16:45;12.50;99.90
10296;DHT22;5193;51.032;6.356;2022-11-15T17:21:38;12.40;99.90
10296;DHT22;5193;51.032;6.356;2022-11-15T17:24:04;12.40;99.90
10296;DHT22;5193;51.032;6.356;2022-11-15T17:26:29;12.30;99.90
10296;DHT22;5193;51.032;6.356;2022-11-15T17:28:55;12.30;99.90
10296;DHT22;5193;51.032;6.356;2022-11-15T17:31:21;12.20;99.90
10296;DHT22;5193;51.032;6.356;2022-11-15T17:33:47;12.20;99.90
10296;DHT22;5193;51.032;6.356;2022-11-15T17:36:12;12.20;99.90
10296;DHT22;5193;51.032;6.356;2022-11-15T17:38:40;12.20;99.90
10296;DHT22;5193;51.032;6.356;2022-11-15T17:41:13;12.10;99.90
10296;DHT22;5193;51.032;6.356;2022-11-15T17:43:39;12.10;99.90
10296;DHT22;5193;51.032;6.356;2022-11-15T17:46:11;12.00;99.90
10296;DHT22;5193;51.032;6.356;2022-11-15T17:48:37;12.00;99.90
10296;DHT22;5193;51.032;6.356;2022-11-15T17:51:05;12.00;99.90
10296;DHT22;5193;51.032;6.356;2022-11-15T17:53:32;12.00;99.90
10296;DHT22;5193;51.032;6.356;2022-11-15T17:56:03;12.00;99.90
10296;DHT22;5193;51.032;6.356;2022-11-15T17:58:29;11.90;99.90
10296;DHT22;5193;51.032;6.356;2022-11-15T18:01:07;11.90;99.90
10296;DHT22;5193;51.032;6.356;2022-11-15T18:03:36;11.90;99.90
10296;DHT22;5193;51.032;6.356;2022-11-15T18:06:03;11.90;99.90
10296;DHT22;5193;51.032;6.356;2022-11-15T18:08:29;11.80;99.90